Time;durP1;ratioP1;P1;durP2;ratioP2;P2;SDS_P1;SDS_P2;PMS_P1;PMS_P2;Temp;Humidity;BMP_temperature;BMP_pressure;BME280_temperature;BME280_humidity;BME280_pressure;Samples;Min_cycle;Max_cycle;Signal;HPM_P1;HPM_P2
2024/01/11 00:01:46;;;;;;;35.80;13.02;;;;;;;;;;4971673;28;20034;-80
2024/01/11 00:04:11;;;;;;;27.73;11.32;;;;;;;;;;4989531;28;20153;-79
2024/01/11 00:06:43;;;;;;;22.25;10.15;;;;;;;;;;4990796;28;20482;-79
2024/01/11 00:09:08;;;;;;;29.15;12.10;;;;;;;;;;4990481;28;20057;-80
2024/01/11 00:11:34;;;;;;;28.63;10.82;;;;;;;;;;4991191;28;20026;-79
2024/01/11 00:13:59;;;;;;;28.42;10.00;;;;;;;;;;5008713;28;20032;-79
2024/01/11 00:16:26;;;;;;;26.20;10.05;;;;;;;;;;4990532;28;20446;-79
2024/01/11 00:18:51;;;;;;;27.15;10.70;;;;;;;;;;4990466;28;20447;-79
2024/01/11 00:21:17;;;;;;;34.58;12.27;;;;;;;;;;5008403;28;20052;-79
2024/01/11 00:23:42;;;;;;;25.50;10.02;;;;;;;;;;5007882;28;20132;-79
2024/01/11 00:26:07;;;;;;;30.58;11.32;;;;;;;;;;5008426;28;20025;-79
2024/01/11 00:28:33;;;;;;;31.63;12.90;;;;;;;;;;5008459;28;20088;-78
2024/01/11 00:30:58;;;;;;;19.27;7.05;;;;;;;;;;5011920;28;20033;-79
2024/01/11 00:33:23;;;;;;;28.80;9.85;;;;;;;;;;5044752;28;20083;-79
2024/01/11 00:35:49;;;;;;;25.60;10.43;;;;;;;;;;5030148;28;20048;-79
2024/01/11 00:38:14;;;;;;;33.55;12.18;;;;;;;;;;5016605;28;20057;-79
2024/01/11 00:40:39;;;;;;;30.17;10.68;;;;;;;;;;5028523;28;20095;-79
2024/01/11 00:43:05;;;;;;;26.30;9.35;;;;;;;;;;5020018;28;20034;-79
2024/01/11 00:45:30;;;;;;;28.38;10.48;;;;;;;;;;5001767;28;20643;-79
2024/01/11 00:47:56;;;;;;;25.33;10.52;;;;;;;;;;4998622;28;20041;-78
2024/01/11 00:50:21;;;;;;;25.27;9.18;;;;;;;;;;4990308;28;20026;-78
2024/01/11 00:52:46;;;;;;;31.02;10.52;;;;;;;;;;5007680;28;20046;-79
2024/01/11 00:55:12;;;;;;;30.02;11.30;;;;;;;;;;4990450;28;20049;-77
2024/01/11 00:57:37;;;;;;;28.17;11.02;;;;;;;;;;4989360;28;20037;-79
2024/01/11 01:00:03;;;;;;;13.70;6.03;;;;;;;;;;5007758;28;20116;-79
2024/01/11 01:02:28;;;;;;;23.95;10.88;;;;;;;;;;5007151;28;20050;-78
2024/01/11 01:04:54;;;;;;;32.47;12.25;;;;;;;;;;5007577;28;20026;-80
2024/01/11 01:07:19;;;;;;;31.00;12.40;;;;;;;;;;4989099;28;20045;-79
2024/01/11 01:09:45;;;;;;;29.02;10.90;;;;;;;;;;5007807;28;20042;-80
2024/01/11 01:12:10;;;;;;;46.88;10.32;;;;;;;;;;5005886;28;20042;-79
2024/01/11 01:14:35;;;;;;;36.50;10.27;;;;;;;;;;4989716;28;20026;-79
2024/01/11 01:17:01;;;;;;;28.95;11.10;;;;;;;;;;4989601;28;20098;-79
2024/01/11 01:19:26;;;;;;;26.30;8.75;;;;;;;;;;4989061;28;20037;-78
2024/01/11 01:21:51;;;;;;;32.13;11.25;;;;;;;;;;5006841;28;20041;-79
2024/01/11 01:24:17;;;;;;;32.35;10.02;;;;;;;;;;4989604;28;20092;-78
2024/01/11 01:26:42;;;;;;;27.50;8.65;;;;;;;;;;5006834;28;20038;-79
2024/01/11 01:29:07;;;;;;;27.30;9.15;;;;;;;;;;4990084;28;20029;-78
2024/01/11 01:31:37;;;;;;;30.40;10.63;;;;;;;;;;5005770;28;20118;-79
2024/01/11 01:34:03;;;;;;;27.33;9.38;;;;;;;;;;5005908;28;20088;-79
2024/01/11 01:36:28;;;;;;;24.08;10.13;;;;;;;;;;4988754;28;20037;-78
2024/01/11 01:38:54;;;;;;;29.27;10.05;;;;;;;;;;5025336;28;20044;-79
2024/01/11 01:41:19;;;;;;;24.35;10.18;;;;;;;;;;5027045;28;20145;-79
2024/01/11 01:43:44;;;;;;;24.58;8.50;;;;;;;;;;4991420;28;20038;-79
2024/01/11 01:46:10;;;;;;;21.70;8.73;;;;;;;;;;4989502;28;20097;-79
2024/01/11 01:48:37;;;;;;;27.50;10.00;;;;;;;;;;5009764;28;20568;-78
2024/01/11 01:51:03;;;;;;;25.02;10.32;;;;;;;;;;5007551;28;20052;-82
2024/01/11 01:53:29;;;;;;;17.75;8.65;;;;;;;;;;5026902;28;20033;-79
2024/01/11 01:55:55;;;;;;;24.90;10.65;;;;;;;;;;5009280;28;20025;-79
2024/01/11 01:58:21;;;;;;;21.75;9.57;;;;;;;;;;5027199;28;20557;-79
2024/01/11 02:00:49;;;;;;;27.05;9.88;;;;;;;;;;5009916;28;20392;-78
2024/01/11 02:03:15;;;;;;;29.63;9.70;;;;;;;;;;5013274;28;20048;-79
2024/01/11 02:05:41;;;;;;;26.70;10.50;;;;;;;;;;5040193;28;20025;-79
2024/01/11 02:08:08;;;;;;;25.83;10.68;;;;;;;;;;5022349;28;20061;-79
2024/01/11 02:10:35;;;;;;;23.00;8.35;;;;;;;;;;5028959;28;20095;-78
2024/01/11 02:13:01;;;;;;;26.45;9.43;;;;;;;;;;5008909;28;20037;-78
2024/01/11 02:15:26;;;;;;;21.67;9.75;;;;;;;;;;5019657;28;20062;-79
2024/01/11 02:17:51;;;;;;;25.10;10.15;;;;;;;;;;5029239;28;20076;-78
2024/01/11 02:20:17;;;;;;;27.92;10.15;;;;;;;;;;5013144;28;20037;-79
2024/01/11 02:22:47;;;;;;;25.50;11.43;;;;;;;;;;5030303;28;20051;-78
2024/01/11 02:25:12;;;;;;;14.00;6.65;;;;;;;;;;5009113;28;20038;-78
2024/01/11 02:27:50;;;;;;;26.65;9.98;;;;;;;;;;5010504;28;20053;-79
2024/01/11 02:30:17;;;;;;;22.73;9.15;;;;;;;;;;5010501;28;20049;-78
2024/01/11 02:32:50;;;;;;;27.92;8.80;;;;;;;;;;4995285;28;20018;-79
2024/01/11 02:35:16;;;;;;;27.90;9.82;;;;;;;;;;5010198;28;20534;-79
2024/01/11 02:37:41;;;;;;;16.33;7.45;;;;;;;;;;5004214;28;20132;-79
2024/01/11 02:40:08;;;;;;;29.73;11.30;;;;;;;;;;5032845;28;20041;-79
2024/01/11 02:42:34;;;;;;;22.70;8.93;;;;;;;;;;5011338;28;20109;-79
2024/01/11 02:45:00;;;;;;;25.02;9.80;;;;;;;;;;5010898;28;20372;-79
2024/01/11 02:47:25;;;;;;;15.38;6.35;;;;;;;;;;5012920;28;20615;-78
2024/01/11 02:49:51;;;;;;;18.48;8.10;;;;;;;;;;5011908;28;20033;-78
2024/01/11 02:52:17;;;;;;;18.00;8.80;;;;;;;;;;5011102;28;20121;-78
2024/01/11 02:54:42;;;;;;;24.42;10.02;;;;;;;;;;5014266;28;20116;-78
2024/01/11 02:57:07;;;;;;;25.15;10.15;;;;;;;;;;5032315;28;20120;-78
2024/01/11 02:59:33;;;;;;;35.38;14.32;;;;;;;;;;5032033;28;20410;-78
2024/01/11 03:01:58;;;;;;;31.20;10.40;;;;;;;;;;5012918;28;20053;-78
2024/01/11 03:04:23;;;;;;;22.73;10.00;;;;;;;;;;5029003;28;20045;-79
2024/01/11 03:06:49;;;;;;;32.20;10.88;;;;;;;;;;5033664;28;20048;-78
2024/01/11 03:09:14;;;;;;;28.83;11.27;;;;;;;;;;5034378;28;20080;-78
2024/01/11 03:11:40;;;;;;;33.03;11.98;;;;;;;;;;5033991;28;20405;-78
2024/01/11 03:14:06;;;;;;;27.58;10.32;;;;;;;;;;5052622;28;20405;-78
2024/01/11 03:16:31;;;;;;;19.02;9.60;;;;;;;;;;5034588;28;20124;-79
2024/01/11 03:18:57;;;;;;;31.65;9.93;;;;;;;;;;5052654;28;20040;-79
2024/01/11 03:21:22;;;;;;;29.33;10.93;;;;;;;;;;5035902;28;20105;-79
2024/01/11 03:23:47;;;;;;;27.38;9.93;;;;;;;;;;5041067;28;20045;-79
2024/01/11 03:26:17;;;;;;;33.17;11.10;;;;;;;;;;5045816;28;20132;-78
2024/01/11 03:28:43;;;;;;;27.88;9.23;;;;;;;;;;5035957;28;20481;-78
2024/01/11 03:31:09;;;;;;;30.65;10.80;;;;;;;;;;5034000;28;20421;-78
2024/01/11 03:33:34;;;;;;;25.58;10.18;;;;;;;;;;5018028;28;20037;-78
2024/01/11 03:36:05;;;;;;;31.92;9.52;;;;;;;;;;5029846;28;20068;-78
2024/01/11 03:38:31;;;;;;;25.45;10.63;;;;;;;;;;5013004;28;20508;-79
2024/01/11 03:40:56;;;;;;;24.88;10.68;;;;;;;;;;5014902;28;20034;-78
2024/01/11 03:43:21;;;;;;;26.90;10.02;;;;;;;;;;5018670;28;20077;-78
2024/01/11 03:45:47;;;;;;;25.45;9.35;;;;;;;;;;5010928;28;20038;-78
2024/01/11 03:48:12;;;;;;;28.25;10.32;;;;;;;;;;5012519;28;20041;-79
2024/01/11 03:50:38;;;;;;;23.17;9.95;;;;;;;;;;4993527;28;20030;-78
2024/01/11 03:53:04;;;;;;;19.50;9.55;;;;;;;;;;4994040;28;20523;-79
2024/01/11 03:55:29;;;;;;;23.15;8.20;;;;;;;;;;5011840;28;20037;-78
2024/01/11 03:57:55;;;;;;;22.30;9.77;;;;;;;;;;5011855;28;20048;-78
2024/01/11 04:00:20;;;;;;;24.30;11.25;;;;;;;;;;5007283;28;20048;-78
2024/01/11 04:02:46;;;;;;;30.52;10.25;;;;;;;;;;5007339;28;20089;-78
2024/01/11 04:05:11;;;;;;;34.75;10.25;;;;;;;;;;5011557;28;20033;-79
2024/01/11 04:07:36;;;;;;;28.38;9.00;;;;;;;;;;4993633;28;20112;-79
2024/01/11 04:10:02;;;;;;;23.35;10.02;;;;;;;;;;5011136;28;20045;-79
2024/01/11 04:12:27;;;;;;;25.55;9.70;;;;;;;;;;4993570;28;20111;-78
2024/01/11 04:14:52;;;;;;;20.90;10.15;;;;;;;;;;4993438;28;20045;-78
2024/01/11 04:17:18;;;;;;;18.92;8.32;;;;;;;;;;4994072;28;20033;-78
2024/01/11 04:19:43;;;;;;;26.33;9.25;;;;;;;;;;4993273;28;20041;-78
2024/01/11 04:22:08;;;;;;;21.10;9.15;;;;;;;;;;4993839;28;20038;-78
2024/01/11 04:24:34;;;;;;;24.52;9.75;;;;;;;;;;5010461;28;20042;-78
2024/01/11 04:26:59;;;;;;;29.40;9.13;;;;;;;;;;5011573;28;20034;-78
2024/01/11 04:29:25;;;;;;;27.02;10.13;;;;;;;;;;4993967;28;20036;-78
2024/01/11 04:31:50;;;;;;;25.85;10.30;;;;;;;;;;5011224;28;20144;-78
2024/01/11 04:34:15;;;;;;;26.67;9.93;;;;;;;;;;5010998;28;20072;-78
2024/01/11 04:36:41;;;;;;;29.58;11.10;;;;;;;;;;4993180;28;20117;-78
2024/01/11 04:39:07;;;;;;;19.40;8.85;;;;;;;;;;5010964;28;20041;-78
2024/01/11 04:41:35;;;;;;;31.05;12.25;;;;;;;;;;5012704;28;20121;-78
2024/01/11 04:44:00;;;;;;;22.02;9.57;;;;;;;;;;4984414;28;20027;-78
2024/01/11 04:46:25;;;;;;;21.77;9.60;;;;;;;;;;5006745;28;20034;-79
2024/01/11 04:48:51;;;;;;;20.60;9.50;;;;;;;;;;4978505;28;20046;-79
2024/01/11 04:51:17;;;;;;;27.45;9.77;;;;;;;;;;4974465;28;20775;-79
2024/01/11 04:53:44;;;;;;;24.65;10.57;;;;;;;;;;4991512;28;20042;-79
2024/01/11 04:56:11;;;;;;;23.55;8.82;;;;;;;;;;4973586;28;20022;-79
2024/01/11 04:58:39;;;;;;;24.92;9.45;;;;;;;;;;4990206;28;20097;-79
2024/01/11 05:01:12;;;;;;;30.88;10.57;;;;;;;;;;4973183;28;20038;-78
2024/01/11 05:03:37;;;;;;;;;;;;;;;;;;4996519;28;20057;-79
2024/01/11 05:06:03;;;;;;;17.52;9.00;;;;;;;;;;4991440;28;20379;-79
2024/01/11 05:08:29;;;;;;;19.77;7.55;;;;;;;;;;5010669;28;20037;-79
2024/01/11 05:10:54;;;;;;;24.90;9.98;;;;;;;;;;5010300;28;20088;-80
2024/01/11 05:13:20;;;;;;;24.15;9.65;;;;;;;;;;4992595;28;20037;-79
2024/01/11 05:15:46;;;;;;;24.85;10.57;;;;;;;;;;4991502;28;20050;-79
2024/01/11 05:18:12;;;;;;;24.83;10.30;;;;;;;;;;4992292;28;20038;-78
2024/01/11 05:20:38;;;;;;;22.65;9.88;;;;;;;;;;5010429;28;20052;-79
2024/01/11 05:23:03;;;;;;;31.30;11.95;;;;;;;;;;5030365;28;20056;-80
2024/01/11 05:25:33;;;;;;;25.98;9.35;;;;;;;;;;5011134;28;20041;-79
2024/01/11 05:27:59;;;;;;;21.92;10.25;;;;;;;;;;5012259;28;20045;-79
2024/01/11 05:30:24;;;;;;;27.55;9.75;;;;;;;;;;5029980;28;20153;-79
2024/01/11 05:32:49;;;;;;;26.77;11.13;;;;;;;;;;5030562;28;20168;-79
2024/01/11 05:35:15;;;;;;;27.38;9.68;;;;;;;;;;5031258;28;20490;-80
2024/01/11 05:37:40;;;;;;;24.83;10.55;;;;;;;;;;5003492;28;20057;-79
2024/01/11 05:40:07;;;;;;;29.90;10.65;;;;;;;;;;5026172;28;20060;-79
2024/01/11 05:42:33;;;;;;;22.05;9.52;;;;;;;;;;5041998;28;20050;-79
2024/01/11 05:44:58;;;;;;;22.05;8.40;;;;;;;;;;5011367;28;20045;-79
2024/01/11 05:47:24;;;;;;;27.17;10.48;;;;;;;;;;5029329;28;20112;-79
2024/01/11 05:49:49;;;;;;;25.02;9.68;;;;;;;;;;5011447;28;20056;-79
2024/01/11 05:52:15;;;;;;;27.38;9.68;;;;;;;;;;4998395;28;20041;-79
2024/01/11 05:54:40;;;;;;;26.02;10.30;;;;;;;;;;5003961;28;20073;-79
2024/01/11 05:57:07;;;;;;;22.33;10.07;;;;;;;;;;5011641;28;20112;-79
2024/01/11 05:59:32;;;;;;;25.80;10.10;;;;;;;;;;5012578;28;20052;-79
2024/01/11 06:02:00;;;;;;;29.08;10.80;;;;;;;;;;5033390;28;20021;-79
2024/01/11 06:04:26;;;;;;;27.92;11.48;;;;;;;;;;5001239;28;20069;-79
2024/01/11 06:06:52;;;;;;;33.72;11.48;;;;;;;;;;5000141;28;20537;-79
2024/01/11 06:09:17;;;;;;;21.67;9.15;;;;;;;;;;5008272;28;20042;-79
2024/01/11 06:11:42;;;;;;;19.27;8.80;;;;;;;;;;4991026;28;20038;-79
2024/01/11 06:14:08;;;;;;;27.92;10.90;;;;;;;;;;5009442;28;20415;-80
2024/01/11 06:16:34;;;;;;;15.77;9.00;;;;;;;;;;4991281;28;20038;-79
2024/01/11 06:18:59;;;;;;;19.77;9.38;;;;;;;;;;4990945;28;20062;-79
2024/01/11 06:21:24;;;;;;;19.17;9.25;;;;;;;;;;4991081;28;20124;-79
2024/01/11 06:23:50;;;;;;;27.08;10.65;;;;;;;;;;4988877;28;20041;-80
2024/01/11 06:26:15;;;;;;;32.13;12.73;;;;;;;;;;5010274;28;20034;-79
2024/01/11 06:28:41;;;;;;;28.90;11.23;;;;;;;;;;5008713;28;20042;-80
2024/01/11 06:31:06;;;;;;;30.25;11.65;;;;;;;;;;5006599;28;20042;-80
2024/01/11 06:33:32;;;;;;;20.67;9.27;;;;;;;;;;4993647;28;20042;-78
2024/01/11 06:35:58;;;;;;;24.50;9.93;;;;;;;;;;4999956;28;20034;-80
2024/01/11 06:38:24;;;;;;;31.63;12.20;;;;;;;;;;4991619;28;20033;-79
2024/01/11 06:40:49;;;;;;;31.65;12.48;;;;;;;;;;5009168;28;20060;-79
2024/01/11 06:43:15;;;;;;;35.90;12.57;;;;;;;;;;4978703;28;20049;-80
2024/01/11 06:45:42;;;;;;;29.33;10.70;;;;;;;;;;4990085;28;20043;-79
2024/01/11 06:48:08;;;;;;;33.50;11.45;;;;;;;;;;4989756;28;20058;-79
2024/01/11 06:50:33;;;;;;;29.55;11.02;;;;;;;;;;4988989;28;20620;-79
2024/01/11 06:52:59;;;;;;;23.17;9.88;;;;;;;;;;4972581;28;20037;-79
2024/01/11 06:55:25;;;;;;;27.98;11.15;;;;;;;;;;4974983;28;20116;-78
2024/01/11 06:57:50;;;;;;;29.73;11.25;;;;;;;;;;4976924;28;20204;-80
2024/01/11 07:00:16;;;;;;;28.02;11.63;;;;;;;;;;4971539;28;20049;-79
2024/01/11 07:02:41;;;;;;;26.98;11.63;;;;;;;;;;4981274;28;20064;-79
2024/01/11 07:05:07;;;;;;;26.27;10.20;;;;;;;;;;5032529;28;20130;-79
2024/01/11 07:07:33;;;;;;;28.85;11.70;;;;;;;;;;5014142;28;20672;-79
2024/01/11 07:09:59;;;;;;;37.85;12.43;;;;;;;;;;5012859;28;20077;-79
2024/01/11 07:12:25;;;;;;;25.63;10.25;;;;;;;;;;5028527;28;20434;-80
2024/01/11 07:14:51;;;;;;;22.40;9.65;;;;;;;;;;5029322;28;20029;-80
2024/01/11 07:17:16;;;;;;;25.85;11.13;;;;;;;;;;4992663;28;20056;-80
2024/01/11 07:19:42;;;;;;;34.88;9.40;;;;;;;;;;5021998;28;20042;-80
2024/01/11 07:22:07;;;;;;;19.33;9.63;;;;;;;;;;5017797;28;20400;-79
2024/01/11 07:24:37;;;;;;;25.00;10.38;;;;;;;;;;5026528;28;20053;-79
2024/01/11 07:27:05;;;;;;;24.20;9.40;;;;;;;;;;5022902;28;20036;-79
2024/01/11 07:29:30;;;;;;;25.33;11.05;;;;;;;;;;5013263;28;20125;-79
2024/01/11 07:31:56;;;;;;;29.25;9.50;;;;;;;;;;5029012;28;20525;-79
2024/01/11 07:34:21;;;;;;;30.20;12.88;;;;;;;;;;5011169;28;20032;-80
2024/01/11 07:36:46;;;;;;;23.35;10.73;;;;;;;;;;5028850;28;20092;-80
2024/01/11 07:39:12;;;;;;;35.50;12.57;;;;;;;;;;5029071;28;20037;-80
2024/01/11 07:41:37;;;;;;;27.73;11.20;;;;;;;;;;5010614;28;20484;-81
2024/01/11 07:44:03;;;;;;;31.75;11.63;;;;;;;;;;5011038;28;20029;-79
2024/01/11 07:46:29;;;;;;;27.15;11.63;;;;;;;;;;5011101;28;20033;-80
2024/01/11 07:48:54;;;;;;;32.88;10.63;;;;;;;;;;5028051;28;20072;-80
2024/01/11 07:51:20;;;;;;;28.60;11.00;;;;;;;;;;5029384;28;20037;-81
2024/01/11 07:53:45;;;;;;;24.75;10.43;;;;;;;;;;5030538;28;20036;-80
2024/01/11 07:56:11;;;;;;;26.73;11.07;;;;;;;;;;5031228;28;20094;-80
2024/01/11 07:58:37;;;;;;;29.33;11.05;;;;;;;;;;5010814;28;20042;-80
2024/01/11 08:01:04;;;;;;;30.50;11.65;;;;;;;;;;5009425;28;20048;-81
2024/01/11 08:03:29;;;;;;;24.92;9.63;;;;;;;;;;5009426;28;20045;-80
2024/01/11 08:05:55;;;;;;;30.75;10.70;;;;;;;;;;5010469;28;20176;-80
2024/01/11 08:08:22;;;;;;;26.52;10.40;;;;;;;;;;5027894;28;20037;-80
2024/01/11 08:10:49;;;;;;;28.23;10.70;;;;;;;;;;5010206;28;20053;-81
2024/01/11 08:13:15;;;;;;;43.78;15.00;;;;;;;;;;5027708;28;20042;-80
2024/01/11 08:15:41;;;;;;;28.33;9.50;;;;;;;;;;5021371;28;20037;-80
2024/01/11 08:18:07;;;;;;;28.38;11.15;;;;;;;;;;5009768;28;20096;-80
2024/01/11 08:20:32;;;;;;;39.72;11.63;;;;;;;;;;5027533;28;20072;-79
2024/01/11 08:22:58;;;;;;;26.20;10.98;;;;;;;;;;5010670;28;20017;-80
2024/01/11 08:25:23;;;;;;;26.95;11.57;;;;;;;;;;5009536;28;20584;-75
2024/01/11 08:27:49;;;;;;;19.27;9.38;;;;;;;;;;5027029;28;20030;-75
2024/01/11 08:30:15;;;;;;;27.45;12.15;;;;;;;;;;5026118;28;20037;-75
2024/01/11 08:32:41;;;;;;;31.13;12.80;;;;;;;;;;5027860;28;20041;-75
2024/01/11 08:35:09;;;;;;;28.25;10.68;;;;;;;;;;5028062;28;20025;-74
2024/01/11 08:37:36;;;;;;;23.30;10.52;;;;;;;;;;5006181;28;20083;-74
2024/01/11 08:40:04;;;;;;;30.13;13.15;;;;;;;;;;5008601;28;20034;-75
2024/01/11 08:42:30;;;;;;;32.55;11.75;;;;;;;;;;5005292;28;20037;-75
2024/01/11 08:44:55;;;;;;;31.75;11.75;;;;;;;;;;5038364;28;20060;-74
2024/01/11 08:47:20;;;;;;;27.73;13.27;;;;;;;;;;5009278;28;20021;-75
2024/01/11 08:49:46;;;;;;;37.13;14.18;;;;;;;;;;5008152;28;20077;-75
2024/01/11 08:52:11;;;;;;;29.17;12.38;;;;;;;;;;5008889;28;20114;-75
2024/01/11 08:54:37;;;;;;;39.10;14.40;;;;;;;;;;5007605;28;20048;-75
2024/01/11 08:57:03;;;;;;;33.88;11.82;;;;;;;;;;5025855;28;20041;-75
2024/01/11 08:59:28;;;;;;;27.33;11.95;;;;;;;;;;5008351;28;20024;-75
2024/01/11 09:01:53;;;;;;;28.65;11.82;;;;;;;;;;5026509;28;20021;-74
2024/01/11 09:04:19;;;;;;;23.50;10.68;;;;;;;;;;5006466;28;20066;-75
2024/01/11 09:06:48;;;;;;;34.72;14.40;;;;;;;;;;4988658;28;20042;-75
2024/01/11 09:09:13;;;;;;;28.95;11.57;;;;;;;;;;5005908;28;20514;-75
2024/01/11 09:11:41;;;;;;;26.67;11.40;;;;;;;;;;4989182;28;20053;-75
2024/01/11 09:14:07;;;;;;;44.47;15.35;;;;;;;;;;4988503;28;20029;-75
2024/01/11 09:16:32;;;;;;;32.22;14.07;;;;;;;;;;5005527;28;20041;-75
2024/01/11 09:19:00;;;;;;;39.03;14.45;;;;;;;;;;4988273;28;20029;-75
2024/01/11 09:21:26;;;;;;;28.05;12.20;;;;;;;;;;4988699;28;20553;-74
2024/01/11 09:23:51;;;;;;;42.80;16.15;;;;;;;;;;5003227;28;20046;-75
2024/01/11 09:26:16;;;;;;;34.42;13.63;;;;;;;;;;5006496;28;20083;-75
2024/01/11 09:28:42;;;;;;;42.67;17.27;;;;;;;;;;5005787;28;20121;-74
2024/01/11 09:31:07;;;;;;;49.00;18.80;;;;;;;;;;4993555;28;20106;-75
2024/01/11 09:33:33;;;;;;;32.58;13.20;;;;;;;;;;4995119;28;20520;-78
2024/01/11 09:35:59;;;;;;;42.53;15.23;;;;;;;;;;4994806;28;20030;-78
2024/01/11 09:38:24;;;;;;;43.83;17.77;;;;;;;;;;5006553;28;20017;-78
2024/01/11 09:41:03;;;;;;;44.33;15.55;;;;;;;;;;4988807;28;20021;-79
2024/01/11 09:43:29;;;;;;;50.03;16.60;;;;;;;;;;4991480;28;20061;-78
2024/01/11 09:45:56;;;;;;;29.48;12.88;;;;;;;;;;4986886;28;20038;-78
2024/01/11 09:48:24;;;;;;;42.83;15.70;;;;;;;;;;4985325;28;20058;-79
2024/01/11 09:50:50;;;;;;;42.97;16.23;;;;;;;;;;4979022;28;20085;-79
2024/01/11 09:53:17;;;;;;;35.35;11.63;;;;;;;;;;4988014;28;20027;-78
2024/01/11 09:55:43;;;;;;;38.22;14.25;;;;;;;;;;4976991;28;20061;-79
2024/01/11 09:58:10;;;;;;;42.15;15.63;;;;;;;;;;4972421;28;20031;-78
2024/01/11 10:00:36;;;;;;;25.35;10.52;;;;;;;;;;4978095;28;20045;-75
2024/01/11 10:03:01;;;;;;;39.78;14.90;;;;;;;;;;5002414;28;20049;-76
2024/01/11 10:05:29;;;;;;;38.97;17.15;;;;;;;;;;5038340;28;20026;-74
2024/01/11 10:07:54;;;;;;;45.10;17.70;;;;;;;;;;5009731;28;20057;-74
2024/01/11 10:10:20;;;;;;;44.30;15.90;;;;;;;;;;5026140;28;20586;-75
2024/01/11 10:12:47;;;;;;;44.88;16.83;;;;;;;;;;5025529;28;20039;-75
2024/01/11 10:15:13;;;;;;;49.60;17.10;;;;;;;;;;5007173;28;20757;-75
2024/01/11 10:17:43;;;;;;;44.10;16.05;;;;;;;;;;5024008;28;20490;-75
2024/01/11 10:20:10;;;;;;;46.88;17.88;;;;;;;;;;5008066;28;20449;-78
2024/01/11 10:22:36;;;;;;;47.80;20.73;;;;;;;;;;5009430;28;20034;-78
2024/01/11 10:25:13;;;;;;;33.83;14.05;;;;;;;;;;5027202;28;20044;-78
2024/01/11 10:27:41;;;;;;;35.40;14.32;;;;;;;;;;5026882;28;20061;-78
2024/01/11 10:30:07;;;;;;;46.55;19.23;;;;;;;;;;5025985;28;20478;-78
2024/01/11 10:32:34;;;;;;;43.63;17.40;;;;;;;;;;5026433;28;20494;-78
2024/01/11 10:35:01;;;;;;;49.97;18.75;;;;;;;;;;5009418;28;20025;-77
2024/01/11 10:37:28;;;;;;;34.90;13.15;;;;;;;;;;5003772;28;20034;-77
2024/01/11 10:39:57;;;;;;;40.38;15.43;;;;;;;;;;5010895;28;20043;-76
2024/01/11 10:42:24;;;;;;;28.65;13.20;;;;;;;;;;5027233;28;20037;-76
2024/01/11 10:44:55;;;;;;;56.38;21.75;;;;;;;;;;5021667;28;20040;-76
2024/01/11 10:47:22;;;;;;;34.97;14.13;;;;;;;;;;5032817;28;20506;-78
2024/01/11 10:49:50;;;;;;;57.40;22.05;;;;;;;;;;5031610;28;20045;-79
2024/01/11 10:52:19;;;;;;;46.90;18.30;;;;;;;;;;5049341;28;20095;-78
2024/01/11 10:54:46;;;;;;;50.97;18.75;;;;;;;;;;5048950;28;20057;-78
2024/01/11 10:57:12;;;;;;;33.08;13.43;;;;;;;;;;5024762;28;20897;-76
2024/01/11 10:59:40;;;;;;;40.42;15.50;;;;;;;;;;5014786;28;20036;-73
2024/01/11 11:02:12;;;;;;;43.30;16.80;;;;;;;;;;5008692;28;20518;-75
2024/01/11 11:04:38;;;;;;;45.85;17.48;;;;;;;;;;5002888;28;20145;-75
2024/01/11 11:07:07;;;;;;;30.30;12.93;;;;;;;;;;5007196;28;20045;-75
2024/01/11 11:09:34;;;;;;;39.22;13.52;;;;;;;;;;5005412;28;20110;-75
2024/01/11 11:12:00;;;;;;;45.50;17.73;;;;;;;;;;4991134;28;20037;-75
2024/01/11 11:14:25;;;;;;;42.17;16.50;;;;;;;;;;5010901;28;20028;-75
2024/01/11 11:16:52;;;;;;;39.55;14.57;;;;;;;;;;5011199;28;20087;-75
2024/01/11 11:19:20;;;;;;;39.92;15.38;;;;;;;;;;5031786;28;20057;-75
2024/01/11 11:21:47;;;;;;;48.05;16.85;;;;;;;;;;5039477;28;20044;-75
2024/01/11 11:24:13;;;;;;;38.60;16.23;;;;;;;;;;5036152;28;20128;-76
2024/01/11 11:26:39;;;;;;;49.35;18.17;;;;;;;;;;4994340;28;20116;-74
2024/01/11 11:29:05;;;;;;;33.53;14.45;;;;;;;;;;5017100;28;20025;-74
2024/01/11 11:31:53;;;;;;;45.10;16.27;;;;;;;;;;5027241;28;20477;-75
2024/01/11 11:34:19;;;;;;;41.15;15.57;;;;;;;;;;5019974;28;20589;-75
2024/01/11 11:36:54;;;;;;;44.47;17.33;;;;;;;;;;5016308;28;20054;-75
2024/01/11 11:39:20;;;;;;;48.17;19.42;;;;;;;;;;5010347;28;20111;-75
2024/01/11 11:41:45;;;;;;;46.33;17.17;;;;;;;;;;5027534;28;20029;-75
2024/01/11 11:44:13;;;;;;;50.88;19.95;;;;;;;;;;5028919;28;20040;-75
2024/01/11 11:46:39;;;;;;;48.78;21.08;;;;;;;;;;5028449;28;20042;-75
2024/01/11 11:49:04;;;;;;;39.63;17.63;;;;;;;;;;5026786;28;20044;-75
2024/01/11 11:51:30;;;;;;;23.83;10.75;;;;;;;;;;5009856;28;20089;-75
2024/01/11 11:53:55;;;;;;;48.17;20.65;;;;;;;;;;5027441;28;20088;-75
2024/01/11 11:56:22;;;;;;;40.13;16.65;;;;;;;;;;5009671;28;20037;-74
2024/01/11 11:58:52;;;;;;;40.25;16.58;;;;;;;;;;5009157;28;20128;-75
2024/01/11 12:01:18;;;;;;;20.15;9.63;;;;;;;;;;5022160;28;20073;-75
2024/01/11 12:03:50;;;;;;;42.35;16.00;;;;;;;;;;5027672;28;20076;-75
2024/01/11 12:06:22;;;;;;;45.30;17.33;;;;;;;;;;5008441;28;20054;-74
2024/01/11 12:08:48;;;;;;;39.45;16.27;;;;;;;;;;5009375;28;20068;-75
2024/01/11 12:11:24;;;;;;;42.70;16.60;;;;;;;;;;5027892;28;20542;-74
2024/01/11 12:13:50;;;;;;;40.40;15.40;;;;;;;;;;5007536;28;20038;-73
2024/01/11 12:16:16;;;;;;;44.60;18.38;;;;;;;;;;5018171;28;20101;-75
2024/01/11 12:18:42;;;;;;;37.72;13.93;;;;;;;;;;5047167;28;20044;-75
2024/01/11 12:21:08;;;;;;;31.63;13.02;;;;;;;;;;5032111;28;20085;-74
2024/01/11 12:23:37;;;;;;;42.80;15.55;;;;;;;;;;5029660;28;20025;-74
2024/01/11 12:26:12;;;;;;;41.08;10.15;;;;;;;;;;5051683;28;20026;-75
2024/01/11 12:28:43;;;;;;;45.60;14.88;;;;;;;;;;5030459;28;20096;-76
2024/01/11 12:31:10;;;;;;;37.08;14.60;;;;;;;;;;5015569;28;20042;-77
2024/01/11 12:33:37;;;;;;;39.67;15.90;;;;;;;;;;5007607;28;20169;-77
2024/01/11 12:36:04;;;;;;;50.08;19.40;;;;;;;;;;4990226;28;20046;-78
2024/01/11 12:38:29;;;;;;;36.38;14.48;;;;;;;;;;5022448;28;20048;-78
2024/01/11 12:40:55;;;;;;;38.30;15.30;;;;;;;;;;5010167;28;20033;-76
2024/01/11 12:43:20;;;;;;;41.85;16.25;;;;;;;;;;5009218;28;20040;-73
2024/01/11 12:45:46;;;;;;;46.05;17.10;;;;;;;;;;5008870;28;20042;-76
2024/01/11 12:48:14;;;;;;;40.13;16.25;;;;;;;;;;5016799;28;20041;-78
2024/01/11 12:50:40;;;;;;;38.78;15.90;;;;;;;;;;5039590;28;20036;-79
2024/01/11 12:53:16;;;;;;;39.08;17.42;;;;;;;;;;5029442;28;20392;-78
2024/01/11 12:55:42;;;;;;;46.10;14.48;;;;;;;;;;5008903;28;20539;-77
2024/01/11 12:58:10;;;;;;;34.05;13.27;;;;;;;;;;5009461;28;20038;-77
2024/01/11 13:00:37;;;;;;;48.35;19.60;;;;;;;;;;5017848;28;20033;-77
2024/01/11 13:03:03;;;;;;;37.13;15.35;;;;;;;;;;4988365;28;20068;-77
2024/01/11 13:05:30;;;;;;;35.55;14.63;;;;;;;;;;4989675;28;20033;-77
2024/01/11 13:07:57;;;;;;;40.90;17.77;;;;;;;;;;5007078;28;20025;-79
2024/01/11 13:10:27;;;;;;;37.53;14.90;;;;;;;;;;5026134;28;20056;-78
2024/01/11 13:12:53;;;;;;;45.15;18.63;;;;;;;;;;5026244;28;20321;-77
2024/01/11 13:15:19;;;;;;;33.30;13.20;;;;;;;;;;5007727;28;20037;-77
2024/01/11 13:17:44;;;;;;;34.80;12.85;;;;;;;;;;5025980;28;20034;-78
2024/01/11 13:20:10;;;;;;;40.45;17.80;;;;;;;;;;5026812;28;20029;-77
2024/01/11 13:22:35;;;;;;;43.63;16.92;;;;;;;;;;5008559;28;20129;-80
2024/01/11 13:25:01;;;;;;;39.60;17.33;;;;;;;;;;5026356;28;20045;-76
2024/01/11 13:27:26;;;;;;;35.55;14.60;;;;;;;;;;5008313;28;20069;-77
2024/01/11 13:29:52;;;;;;;40.38;18.40;;;;;;;;;;5008642;28;20041;-77
2024/01/11 13:32:17;;;;;;;35.08;15.32;;;;;;;;;;5004782;28;20641;-78
2024/01/11 13:34:43;;;;;;;32.85;12.73;;;;;;;;;;5025925;28;20128;-78
2024/01/11 13:37:09;;;;;;;43.08;16.55;;;;;;;;;;5008428;28;20584;-78
2024/01/11 13:39:34;;;;;;;34.38;14.68;;;;;;;;;;5026527;28;20040;-77
2024/01/11 13:41:59;;;;;;;37.95;12.35;;;;;;;;;;5005568;28;20065;-77
2024/01/11 13:44:25;;;;;;;23.00;10.45;;;;;;;;;;5001655;28;20112;-76
2024/01/11 13:46:50;;;;;;;34.90;12.40;;;;;;;;;;5006498;28;20034;-77
2024/01/11 13:49:16;;;;;;;37.67;16.05;;;;;;;;;;5008355;28;20092;-77
2024/01/11 13:51:43;;;;;;;36.10;14.38;;;;;;;;;;5023927;28;20045;-76
2024/01/11 13:54:09;;;;;;;31.65;14.25;;;;;;;;;;5027487;28;20098;-77
2024/01/11 13:56:34;;;;;;;34.15;15.82;;;;;;;;;;5045523;28;20028;-75
2024/01/11 13:58:59;;;;;;;36.72;15.00;;;;;;;;;;5023847;28;20522;-76
2024/01/11 14:01:25;;;;;;;35.80;14.57;;;;;;;;;;5016680;28;20037;-75
2024/01/11 14:03:50;;;;;;;42.15;15.50;;;;;;;;;;5013566;28;20046;-73
2024/01/11 14:06:16;;;;;;;38.15;14.27;;;;;;;;;;5012557;28;20168;-74
2024/01/11 14:08:41;;;;;;;33.28;11.50;;;;;;;;;;5039303;28;21096;-74
2024/01/11 14:11:07;;;;;;;32.83;14.35;;;;;;;;;;5038442;28;20033;-75
2024/01/11 14:13:32;;;;;;;36.35;12.93;;;;;;;;;;5024336;28;20048;-75
2024/01/11 14:15:58;;;;;;;36.78;15.07;;;;;;;;;;5005875;28;20040;-79